sensor_id;sensor_type;location;lat;lon;timestamp;pressure;altitude;pressure_sealevel;temperature;humidity
80733;BME280;70130;44.534;18.678;2024-03-23T00:54:02;98859.22;;;5.87;92.28
80733;BME280;70130;44.534;18.678;2024-03-23T00:56:29;98853.66;;;5.84;92.29
80733;BME280;70130;44.534;18.678;2024-03-23T00:58:54;98860.75;;;5.75;92.96
80733;BME280;70130;44.534;18.678;2024-03-23T01:01:20;98861.84;;;5.74;93.07
80733;BME280;70130;44.534;18.678;2024-03-23T01:03:46;98849.22;;;5.79;92.99
80733;BME280;70130;44.534;18.678;2024-03-23T01:06:11;98854.66;;;5.74;93.10
80733;BME280;70130;44.534;18.678;2024-03-23T01:08:37;98833.16;;;5.57;93.97
80733;BME280;70130;44.534;18.678;2024-03-23T01:11:03;98838.75;;;5.69;93.42
80733;BME280;70130;44.534;18.678;2024-03-23T01:13:29;98835.03;;;5.70;93.26
80733;BME280;70130;44.534;18.678;2024-03-23T01:15:56;98834.22;;;5.56;93.35
80733;BME280;70130;44.534;18.678;2024-03-23T01:18:22;98839.94;;;5.63;93.16
80733;BME280;70130;44.534;18.678;2024-03-23T01:20:48;98829.28;;;5.63;93.17
80733;BME280;70130;44.534;18.678;2024-03-23T01:23:14;98825.03;;;5.48;93.25
80733;BME280;70130;44.534;18.678;2024-03-23T01:25:40;98826.16;;;5.47;93.67
80733;BME280;70130;44.534;18.678;2024-03-23T01:28:06;98824.66;;;5.41;94.18
80733;BME280;70130;44.534;18.678;2024-03-23T01:30:32;98821.69;;;5.43;94.12
80733;BME280;70130;44.534;18.678;2024-03-23T01:32:58;98815.69;;;5.37;93.94
80733;BME280;70130;44.534;18.678;2024-03-23T01:35:23;98819.22;;;5.33;94.63
80733;BME280;70130;44.534;18.678;2024-03-23T01:37:49;98812.78;;;5.34;94.36
80733;BME280;70130;44.534;18.678;2024-03-23T01:40:16;98811.44;;;5.36;94.40
80733;BME280;70130;44.534;18.678;2024-03-23T01:42:42;98808.97;;;5.26;94.69
80733;BME280;70130;44.534;18.678;2024-03-23T01:45:08;98805.88;;;5.19;94.90
80733;BME280;70130;44.534;18.678;2024-03-23T01:47:35;98801.53;;;5.09;95.64
80733;BME280;70130;44.534;18.678;2024-03-23T01:50:01;98805.88;;;5.19;95.20
80733;BME280;70130;44.534;18.678;2024-03-23T01:52:27;98800.34;;;5.15;95.62
80733;BME280;70130;44.534;18.678;2024-03-23T01:54:53;98799.75;;;5.18;95.31
80733;BME280;70130;44.534;18.678;2024-03-23T01:57:19;98801.44;;;5.14;95.65
80733;BME280;70130;44.534;18.678;2024-03-23T01:59:46;98798.75;;;5.01;96.45
80733;BME280;70130;44.534;18.678;2024-03-23T02:02:16;98796.09;;;5.01;96.59
80733;BME280;70130;44.534;18.678;2024-03-23T02:04:44;98793.72;;;4.99;96.73
80733;BME280;70130;44.534;18.678;2024-03-23T02:07:09;98789.38;;;5.03;96.40
80733;BME280;70130;44.534;18.678;2024-03-23T02:09:35;98789.47;;;4.98;96.79
80733;BME280;70130;44.534;18.678;2024-03-23T02:12:02;98785.81;;;4.94;96.68
80733;BME280;70130;44.534;18.678;2024-03-23T02:14:28;98787.56;;;4.85;97.01
80733;BME280;70130;44.534;18.678;2024-03-23T02:16:54;98780.03;;;4.92;96.90
80733;BME280;70130;44.534;18.678;2024-03-23T02:19:19;98779.94;;;4.97;96.59
80733;BME280;70130;44.534;18.678;2024-03-23T02:21:45;98779.59;;;4.85;96.95
80733;BME280;70130;44.534;18.678;2024-03-23T02:24:12;98782.69;;;4.92;97.02
80733;BME280;70130;44.534;18.678;2024-03-23T02:26:38;98779.63;;;4.99;96.60
80733;BME280;70130;44.534;18.678;2024-03-23T02:29:03;98782.88;;;4.96;96.65
80733;BME280;70130;44.534;18.678;2024-03-23T02:31:29;98780.22;;;4.96;96.81
80733;BME280;70130;44.534;18.678;2024-03-23T02:33:54;98783.06;;;4.99;96.77
80733;BME280;70130;44.534;18.678;2024-03-23T02:36:20;98777.56;;;4.96;96.64
80733;BME280;70130;44.534;18.678;2024-03-23T02:38:46;98774.91;;;4.96;96.69
80733;BME280;70130;44.534;18.678;2024-03-23T02:41:12;98765.22;;;4.86;97.07
80733;BME280;70130;44.534;18.678;2024-03-23T02:43:39;98774.56;;;4.84;97.45
80733;BME280;70130;44.534;18.678;2024-03-23T02:46:04;98769.59;;;4.45;99.36
80733;BME280;70130;44.534;18.678;2024-03-23T02:48:30;98763.78;;;4.61;99.19
80733;BME280;70130;44.534;18.678;2024-03-23T02:50:55;98763.09;;;4.69;98.82
80733;BME280;70130;44.534;18.678;2024-03-23T02:53:21;98761.22;;;4.70;98.66
80733;BME280;70130;44.534;18.678;2024-03-23T02:55:46;98763.53;;;4.76;98.61
80733;BME280;70130;44.534;18.678;2024-03-23T02:58:12;98758.41;;;4.80;98.40
80733;BME280;70130;44.534;18.678;2024-03-23T03:00:38;98757.59;;;4.66;98.91
80733;BME280;70130;44.534;18.678;2024-03-23T03:03:03;98751.59;;;4.74;98.93
80733;BME280;70130;44.534;18.678;2024-03-23T03:05:29;98755.44;;;4.68;99.04
80733;BME280;70130;44.534;18.678;2024-03-23T03:07:55;98747.81;;;4.61;98.89
80733;BME280;70130;44.534;18.678;2024-03-23T03:10:20;98754.41;;;4.64;98.81
80733;BME280;70130;44.534;18.678;2024-03-23T03:12:46;98748.41;;;4.58;98.71
80733;BME280;70130;44.534;18.678;2024-03-23T03:15:12;98754.22;;;4.60;98.37
80733;BME280;70130;44.534;18.678;2024-03-23T03:17:38;98749.78;;;4.56;98.16
80733;BME280;70130;44.534;18.678;2024-03-23T03:20:04;98750.56;;;4.56;97.99
80733;BME280;70130;44.534;18.678;2024-03-23T03:22:30;98740.88;;;4.47;98.14
80733;BME280;70130;44.534;18.678;2024-03-23T03:24:56;98746.28;;;4.42;98.42
80733;BME280;70130;44.534;18.678;2024-03-23T03:27:21;98737.31;;;4.38;98.73
80733;BME280;70130;44.534;18.678;2024-03-23T03:29:48;98736.16;;;4.44;98.27
80733;BME280;70130;44.534;18.678;2024-03-23T03:32:14;98731.00;;;4.33;98.44
80733;BME280;70130;44.534;18.678;2024-03-23T03:34:39;98725.16;;;4.31;98.69
80733;BME280;70130;44.534;18.678;2024-03-23T03:37:05;98733.81;;;4.23;99.05
80733;BME280;70130;44.534;18.678;2024-03-23T03:39:30;98731.63;;;4.25;98.83
80733;BME280;70130;44.534;18.678;2024-03-23T03:41:56;98725.25;;;4.08;99.21
80733;BME280;70130;44.534;18.678;2024-03-23T03:44:22;98725.91;;;4.18;99.32
80733;BME280;70130;44.534;18.678;2024-03-23T03:46:47;98721.50;;;3.90;100.00
80733;BME280;70130;44.534;18.678;2024-03-23T03:49:13;98730.91;;;4.01;100.00
80733;BME280;70130;44.534;18.678;2024-03-23T03:51:38;98733.84;;;3.81;100.00
80733;BME280;70130;44.534;18.678;2024-03-23T03:54:04;98718.91;;;3.85;100.00
80733;BME280;70130;44.534;18.678;2024-03-23T03:56:29;98731.13;;;3.86;100.00
80733;BME280;70130;44.534;18.678;2024-03-23T03:58:55;98724.41;;;3.94;100.00
80733;BME280;70130;44.534;18.678;2024-03-23T04:01:21;98735.31;;;3.92;100.00
80733;BME280;70130;44.534;18.678;2024-03-23T04:03:46;98723.63;;;3.93;100.00
80733;BME280;70130;44.534;18.678;2024-03-23T04:06:18;98727.28;;;3.97;100.00
80733;BME280;70130;44.534;18.678;2024-03-23T04:08:44;98721.69;;;3.99;100.00
80733;BME280;70130;44.534;18.678;2024-03-23T04:11:09;98728.06;;;3.98;100.00
80733;BME280;70130;44.534;18.678;2024-03-23T04:13:35;98724.34;;;3.99;100.00
80733;BME280;70130;44.534;18.678;2024-03-23T04:16:00;98723.81;;;3.97;100.00
80733;BME280;70130;44.534;18.678;2024-03-23T04:18:26;98733.66;;;3.96;100.00
80733;BME280;70130;44.534;18.678;2024-03-23T04:20:52;98720.50;;;3.86;100.00
80733;BME280;70130;44.534;18.678;2024-03-23T04:23:17;98725.03;;;3.85;100.00
80733;BME280;70130;44.534;18.678;2024-03-23T04:25:43;98720.81;;;3.84;100.00
80733;BME280;70130;44.534;18.678;2024-03-23T04:28:09;98726.94;;;3.80;100.00
80733;BME280;70130;44.534;18.678;2024-03-23T04:30:34;98724.91;;;3.53;100.00
80733;BME280;70130;44.534;18.678;2024-03-23T04:33:00;98715.19;;;3.67;100.00
80733;BME280;70130;44.534;18.678;2024-03-23T04:35:26;98720.16;;;3.74;100.00
80733;BME280;70130;44.534;18.678;2024-03-23T04:37:53;98716.13;;;3.76;100.00
80733;BME280;70130;44.534;18.678;2024-03-23T04:40:19;98712.91;;;3.79;100.00
80733;BME280;70130;44.534;18.678;2024-03-23T04:42:45;98716.84;;;3.82;100.00
80733;BME280;70130;44.534;18.678;2024-03-23T04:45:11;98698.34;;;3.77;100.00
80733;BME280;70130;44.534;18.678;2024-03-23T04:47:37;98711.03;;;3.80;100.00
80733;BME280;70130;44.534;18.678;2024-03-23T04:50:04;98712.13;;;3.79;100.00
80733;BME280;70130;44.534;18.678;2024-03-23T04:52:30;98720.22;;;3.69;100.00
80733;BME280;70130;44.534;18.678;2024-03-23T04:54:55;98712.16;;;3.55;100.00
80733;BME280;70130;44.534;18.678;2024-03-23T04:57:21;98716.97;;;3.72;100.00
80733;BME280;70130;44.534;18.678;2024-03-23T04:59:47;98710.06;;;3.52;100.00
80733;BME280;70130;44.534;18.678;2024-03-23T05:02:14;98702.25;;;3.61;100.00
80733;BME280;70130;44.534;18.678;2024-03-23T05:04:41;98712.25;;;3.69;100.00
80733;BME280;70130;44.534;18.678;2024-03-23T05:07:06;98709.31;;;3.70;100.00
80733;BME280;70130;44.534;18.678;2024-03-23T05:09:32;98711.19;;;3.70;100.00
80733;BME280;70130;44.534;18.678;2024-03-23T05:12:01;98711.69;;;3.72;100.00
80733;BME280;70130;44.534;18.678;2024-03-23T05:14:28;98708.38;;;3.80;100.00
80733;BME280;70130;44.534;18.678;2024-03-23T05:16:54;98703.66;;;3.77;100.00
80733;BME280;70130;44.534;18.678;2024-03-23T05:19:19;98708.03;;;3.86;100.00
80733;BME280;70130;44.534;18.678;2024-03-23T05:21:45;98709.41;;;3.84;100.00
80733;BME280;70130;44.534;18.678;2024-03-23T05:24:11;98703.44;;;3.92;100.00
80733;BME280;70130;44.534;18.678;2024-03-23T05:26:37;98704.50;;;3.91;100.00
80733;BME280;70130;44.534;18.678;2024-03-23T05:29:03;98706.97;;;3.87;100.00
80733;BME280;70130;44.534;18.678;2024-03-23T05:31:30;98705.22;;;3.97;100.00
80733;BME280;70130;44.534;18.678;2024-03-23T05:33:56;98709.13;;;4.04;100.00
80733;BME280;70130;44.534;18.678;2024-03-23T05:36:22;98708.34;;;4.04;100.00
80733;BME280;70130;44.534;18.678;2024-03-23T05:38:49;98707.16;;;4.10;100.00
80733;BME280;70130;44.534;18.678;2024-03-23T05:41:15;98705.06;;;4.25;100.00
80733;BME280;70130;44.534;18.678;2024-03-23T05:43:41;98696.53;;;4.28;99.66
80733;BME280;70130;44.534;18.678;2024-03-23T05:46:06;98690.13;;;4.29;99.71
80733;BME280;70130;44.534;18.678;2024-03-23T05:48:35;98702.69;;;4.43;99.84
80733;BME280;70130;44.534;18.678;2024-03-23T05:51:01;98699.16;;;4.47;99.87
80733;BME280;70130;44.534;18.678;2024-03-23T05:53:27;98697.22;;;4.53;99.44
80733;BME280;70130;44.534;18.678;2024-03-23T05:56:02;98700.28;;;4.60;99.16
80733;BME280;70130;44.534;18.678;2024-03-23T05:58:31;98696.72;;;4.64;99.09
80733;BME280;70130;44.534;18.678;2024-03-23T06:00:58;98697.34;;;4.75;98.58
80733;BME280;70130;44.534;18.678;2024-03-23T06:03:30;98685.06;;;4.79;98.40
80733;BME280;70130;44.534;18.678;2024-03-23T06:05:56;98684.97;;;4.84;98.06
80733;BME280;70130;44.534;18.678;2024-03-23T06:08:22;98690.69;;;4.91;98.24
80733;BME280;70130;44.534;18.678;2024-03-23T06:10:49;98691.88;;;4.99;97.87
80733;BME280;70130;44.534;18.678;2024-03-23T06:13:15;98693.97;;;5.02;98.05
80733;BME280;70130;44.534;18.678;2024-03-23T06:15:42;98694.16;;;5.05;98.09
80733;BME280;70130;44.534;18.678;2024-03-23T06:18:08;98692.88;;;5.16;98.03
80733;BME280;70130;44.534;18.678;2024-03-23T06:20:34;98682.44;;;5.20;98.34
80733;BME280;70130;44.534;18.678;2024-03-23T06:23:00;98685.19;;;5.29;98.14
80733;BME280;70130;44.534;18.678;2024-03-23T06:25:27;98692.50;;;5.37;97.77
80733;BME280;70130;44.534;18.678;2024-03-23T06:27:52;98687.75;;;5.47;97.52
80733;BME280;70130;44.534;18.678;2024-03-23T06:30:18;98689.22;;;5.53;97.30
80733;BME280;70130;44.534;18.678;2024-03-23T06:32:44;98682.22;;;5.57;96.74
80733;BME280;70130;44.534;18.678;2024-03-23T06:35:09;98677.28;;;5.64;96.68
80733;BME280;70130;44.534;18.678;2024-03-23T06:37:38;98686.44;;;5.72;96.63
80733;BME280;70130;44.534;18.678;2024-03-23T06:40:05;98690.25;;;5.80;96.55
80733;BME280;70130;44.534;18.678;2024-03-23T06:42:34;98684.25;;;5.88;96.47
80733;BME280;70130;44.534;18.678;2024-03-23T06:44:59;98688.88;;;5.96;96.01
80733;BME280;70130;44.534;18.678;2024-03-23T06:47:25;98686.78;;;6.06;95.47
80733;BME280;70130;44.534;18.678;2024-03-23T06:49:51;98689.00;;;6.13;95.18
80733;BME280;70130;44.534;18.678;2024-03-23T06:52:16;98686.41;;;6.22;94.98
80733;BME280;70130;44.534;18.678;2024-03-23T06:54:42;98684.91;;;6.29;94.75
80733;BME280;70130;44.534;18.678;2024-03-23T06:57:11;98686.25;;;6.40;94.54
80733;BME280;70130;44.534;18.678;2024-03-23T06:59:40;98684.13;;;6.51;94.40
80733;BME280;70130;44.534;18.678;2024-03-23T07:02:05;98676.97;;;6.60;94.00
80733;BME280;70130;44.534;18.678;2024-03-23T07:04:34;98685.50;;;6.71;93.67
80733;BME280;70130;44.534;18.678;2024-03-23T07:07:00;98674.06;;;6.79;93.45
80733;BME280;70130;44.534;18.678;2024-03-23T07:09:28;98674.59;;;6.89;93.31
80733;BME280;70130;44.534;18.678;2024-03-23T07:11:54;98672.13;;;7.02;92.92
80733;BME280;70130;44.534;18.678;2024-03-23T07:14:21;98667.75;;;7.06;92.69
80733;BME280;70130;44.534;18.678;2024-03-23T07:16:47;98665.78;;;7.20;92.46
80733;BME280;70130;44.534;18.678;2024-03-23T07:19:14;98666.59;;;7.29;92.07
80733;BME280;70130;44.534;18.678;2024-03-23T07:21:42;98664.09;;;7.41;91.45
80733;BME280;70130;44.534;18.678;2024-03-23T07:24:07;98647.00;;;7.42;90.97
80733;BME280;70130;44.534;18.678;2024-03-23T07:26:33;98643.25;;;7.60;90.46
80733;BME280;70130;44.534;18.678;2024-03-23T07:28:59;98646.59;;;7.74;90.06
80733;BME280;70130;44.534;18.678;2024-03-23T07:31:24;98648.78;;;7.90;89.30
80733;BME280;70130;44.534;18.678;2024-03-23T07:33:50;98639.19;;;7.97;89.10
80733;BME280;70130;44.534;18.678;2024-03-23T07:36:16;98639.03;;;8.11;88.71
80733;BME280;70130;44.534;18.678;2024-03-23T07:38:43;98635.88;;;8.26;87.66
80733;BME280;70130;44.534;18.678;2024-03-23T07:41:13;98634.75;;;8.44;87.17
80733;BME280;70130;44.534;18.678;2024-03-23T07:43:40;98630.00;;;8.58;85.77
80733;BME280;70130;44.534;18.678;2024-03-23T07:46:06;98632.81;;;8.71;84.68
80733;BME280;70130;44.534;18.678;2024-03-23T07:48:32;98625.53;;;8.80;83.32
80733;BME280;70130;44.534;18.678;2024-03-23T07:51:02;98632.56;;;9.01;82.58
80733;BME280;70130;44.534;18.678;2024-03-23T07:53:29;98627.16;;;9.10;82.13
80733;BME280;70130;44.534;18.678;2024-03-23T07:55:56;98633.84;;;9.25;80.80
80733;BME280;70130;44.534;18.678;2024-03-23T07:58:22;98626.88;;;9.32;80.37
80733;BME280;70130;44.534;18.678;2024-03-23T08:00:48;98621.59;;;9.44;80.20
80733;BME280;70130;44.534;18.678;2024-03-23T08:03:13;98610.03;;;9.52;79.71
80733;BME280;70130;44.534;18.678;2024-03-23T08:05:39;98613.84;;;9.72;78.15
80733;BME280;70130;44.534;18.678;2024-03-23T08:08:05;98616.91;;;9.83;77.77
80733;BME280;70130;44.534;18.678;2024-03-23T08:10:30;98612.44;;;10.08;76.46
80733;BME280;70130;44.534;18.678;2024-03-23T08:12:56;98613.66;;;10.19;76.17
80733;BME280;70130;44.534;18.678;2024-03-23T08:15:21;98606.63;;;10.26;75.80
80733;BME280;70130;44.534;18.678;2024-03-23T08:17:47;98604.44;;;10.41;74.50
80733;BME280;70130;44.534;18.678;2024-03-23T08:20:13;98605.66;;;10.43;74.52
80733;BME280;70130;44.534;18.678;2024-03-23T08:22:38;98602.78;;;10.48;74.35
80733;BME280;70130;44.534;18.678;2024-03-23T08:25:04;98595.88;;;10.59;73.73
80733;BME280;70130;44.534;18.678;2024-03-23T08:27:31;98594.56;;;10.65;73.14
80733;BME280;70130;44.534;18.678;2024-03-23T08:29:56;98597.59;;;10.88;72.63
80733;BME280;70130;44.534;18.678;2024-03-23T08:32:22;98573.31;;;11.09;71.87
80733;BME280;70130;44.534;18.678;2024-03-23T08:34:50;98588.06;;;11.39;71.05
80733;BME280;70130;44.534;18.678;2024-03-23T08:37:16;98572.78;;;11.55;70.53
80733;BME280;70130;44.534;18.678;2024-03-23T08:39:44;98567.06;;;11.57;70.38
80733;BME280;70130;44.534;18.678;2024-03-23T08:42:10;98563.69;;;11.60;70.31
80733;BME280;70130;44.534;18.678;2024-03-23T08:44:36;98563.91;;;11.67;70.18
80733;BME280;70130;44.534;18.678;2024-03-23T08:47:01;98562.66;;;11.89;69.09
80733;BME280;70130;44.534;18.678;2024-03-23T08:49:27;98563.22;;;12.10;68.22
80733;BME280;70130;44.534;18.678;2024-03-23T08:51:53;98550.06;;;12.36;66.88
80733;BME280;70130;44.534;18.678;2024-03-23T08:54:19;98549.47;;;12.59;66.00
80733;BME280;70130;44.534;18.678;2024-03-23T08:56:46;98543.75;;;12.76;64.72
80733;BME280;70130;44.534;18.678;2024-03-23T08:59:11;98539.03;;;12.88;64.22
80733;BME280;70130;44.534;18.678;2024-03-23T09:01:37;98543.34;;;13.24;63.06
80733;BME280;70130;44.534;18.678;2024-03-23T09:04:03;98536.22;;;13.51;61.35
80733;BME280;70130;44.534;18.678;2024-03-23T09:06:29;98534.78;;;13.57;61.33
80733;BME280;70130;44.534;18.678;2024-03-23T09:08:55;98529.78;;;13.75;60.71
80733;BME280;70130;44.534;18.678;2024-03-23T09:11:20;98531.38;;;13.99;59.71
80733;BME280;70130;44.534;18.678;2024-03-23T09:13:46;98526.06;;;14.02;59.53
80733;BME280;70130;44.534;18.678;2024-03-23T09:16:12;98522.56;;;14.02;59.78
80733;BME280;70130;44.534;18.678;2024-03-23T09:18:38;98515.44;;;13.90;60.18
80733;BME280;70130;44.534;18.678;2024-03-23T09:21:10;98512.41;;;14.14;59.15
80733;BME280;70130;44.534;18.678;2024-03-23T09:23:36;98511.19;;;14.12;59.25
80733;BME280;70130;44.534;18.678;2024-03-23T09:26:05;98504.22;;;14.30;58.99
80733;BME280;70130;44.534;18.678;2024-03-23T09:28:33;98495.66;;;14.47;57.95
80733;BME280;70130;44.534;18.678;2024-03-23T09:31:05;98482.28;;;14.54;57.59
80733;BME280;70130;44.534;18.678;2024-03-23T09:33:33;98484.72;;;14.63;57.14
80733;BME280;70130;44.534;18.678;2024-03-23T09:36:03;98472.31;;;14.85;55.51
80733;BME280;70130;44.534;18.678;2024-03-23T09:38:28;98473.66;;;14.98;55.24
80733;BME280;70130;44.534;18.678;2024-03-23T09:40:54;98476.88;;;15.07;54.34
80733;BME280;70130;44.534;18.678;2024-03-23T09:43:20;98455.78;;;15.49;53.67
80733;BME280;70130;44.534;18.678;2024-03-23T09:45:46;98455.94;;;15.30;53.69
80733;BME280;70130;44.534;18.678;2024-03-23T09:48:12;98456.41;;;15.06;54.14
80733;BME280;70130;44.534;18.678;2024-03-23T09:50:42;98445.03;;;15.23;53.89
80733;BME280;70130;44.534;18.678;2024-03-23T09:53:10;98435.66;;;15.13;54.00
80733;BME280;70130;44.534;18.678;2024-03-23T09:55:37;98435.84;;;15.28;50.36
80733;BME280;70130;44.534;18.678;2024-03-23T09:58:03;98431.28;;;15.35;51.22
80733;BME280;70130;44.534;18.678;2024-03-23T10:00:31;98424.50;;;15.48;49.98
80733;BME280;70130;44.534;18.678;2024-03-23T10:02:58;98427.78;;;16.05;49.19
80733;BME280;70130;44.534;18.678;2024-03-23T10:05:30;98424.19;;;15.94;48.77
80733;BME280;70130;44.534;18.678;2024-03-23T10:10:40;98407.97;;;15.94;47.63
80733;BME280;70130;44.534;18.678;2024-03-23T10:13:05;98405.53;;;15.78;48.43
80733;BME280;70130;44.534;18.678;2024-03-23T10:15:34;98406.38;;;15.89;48.42
80733;BME280;70130;44.534;18.678;2024-03-23T10:18:17;98389.28;;;15.78;48.14
80733;BME280;70130;44.534;18.678;2024-03-23T10:20:43;98378.72;;;15.66;48.28
80733;BME280;70130;44.534;18.678;2024-03-23T10:23:16;98380.09;;;15.90;47.71
80733;BME280;70130;44.534;18.678;2024-03-23T10:25:42;98383.50;;;15.80;48.15
80733;BME280;70130;44.534;18.678;2024-03-23T10:28:08;98382.75;;;16.27;46.45
80733;BME280;70130;44.534;18.678;2024-03-23T10:30:35;98376.78;;;16.58;45.23
80733;BME280;70130;44.534;18.678;2024-03-23T10:33:08;98367.03;;;16.54;43.93
80733;BME280;70130;44.534;18.678;2024-03-23T10:35:34;98360.94;;;16.60;43.90
80733;BME280;70130;44.534;18.678;2024-03-23T10:38:03;98360.09;;;16.56;44.71
80733;BME280;70130;44.534;18.678;2024-03-23T10:40:29;98367.63;;;16.77;44.17
80733;BME280;70130;44.534;18.678;2024-03-23T10:42:57;98352.16;;;16.88;44.27
80733;BME280;70130;44.534;18.678;2024-03-23T10:45:23;98347.47;;;16.78;43.93
80733;BME280;70130;44.534;18.678;2024-03-23T10:47:49;98333.53;;;16.76;44.40
80733;BME280;70130;44.534;18.678;2024-03-23T10:50:15;98338.28;;;17.00;43.04
80733;BME280;70130;44.534;18.678;2024-03-23T10:52:46;98333.31;;;17.16;42.51
80733;BME280;70130;44.534;18.678;2024-03-23T10:55:14;98331.41;;;17.27;41.90
80733;BME280;70130;44.534;18.678;2024-03-23T10:57:59;98322.84;;;17.11;43.30
80733;BME280;70130;44.534;18.678;2024-03-23T11:00:26;98310.06;;;17.12;42.97
80733;BME280;70130;44.534;18.678;2024-03-23T11:02:51;98307.31;;;17.05;43.27
80733;BME280;70130;44.534;18.678;2024-03-23T11:07:50;98291.13;;;17.30;42.13
80733;BME280;70130;44.534;18.678;2024-03-23T11:10:30;98279.91;;;17.49;43.05
80733;BME280;70130;44.534;18.678;2024-03-23T11:12:57;98274.88;;;17.51;41.86
80733;BME280;70130;44.534;18.678;2024-03-23T11:15:23;98258.97;;;17.53;41.72
80733;BME280;70130;44.534;18.678;2024-03-23T11:18:06;98258.63;;;17.72;41.13
80733;BME280;70130;44.534;18.678;2024-03-23T11:20:34;98257.47;;;17.80;39.76
80733;BME280;70130;44.534;18.678;2024-03-23T11:23:01;98256.69;;;17.83;39.81
80733;BME280;70130;44.534;18.678;2024-03-23T11:25:27;98245.44;;;17.92;39.96
80733;BME280;70130;44.534;18.678;2024-03-23T11:27:55;98243.91;;;17.91;39.16
80733;BME280;70130;44.534;18.678;2024-03-23T11:30:27;98245.03;;;18.04;39.16
80733;BME280;70130;44.534;18.678;2024-03-23T11:32:56;98245.41;;;18.09;39.50
80733;BME280;70130;44.534;18.678;2024-03-23T11:35:38;98218.66;;;18.01;38.85
80733;BME280;70130;44.534;18.678;2024-03-23T11:38:13;98214.00;;;18.08;38.65
80733;BME280;70130;44.534;18.678;2024-03-23T11:43:06;98215.81;;;18.47;37.35
80733;BME280;70130;44.534;18.678;2024-03-23T11:45:36;98206.44;;;18.62;36.13
80733;BME280;70130;44.534;18.678;2024-03-23T11:50:34;98193.94;;;18.75;34.69
80733;BME280;70130;44.534;18.678;2024-03-23T11:58:10;98169.78;;;19.47;35.50
80733;BME280;70130;44.534;18.678;2024-03-23T12:00:36;98176.94;;;19.23;34.35
80733;BME280;70130;44.534;18.678;2024-03-23T12:03:03;98161.75;;;19.25;32.93
80733;BME280;70130;44.534;18.678;2024-03-23T12:05:29;98175.00;;;19.23;32.83
80733;BME280;70130;44.534;18.678;2024-03-23T12:07:55;98155.97;;;19.20;32.50
80733;BME280;70130;44.534;18.678;2024-03-23T12:10:40;98141.47;;;19.37;33.53
80733;BME280;70130;44.534;18.678;2024-03-23T12:13:06;98137.16;;;19.39;33.07
80733;BME280;70130;44.534;18.678;2024-03-23T12:15:31;98136.00;;;19.40;33.29
80733;BME280;70130;44.534;18.678;2024-03-23T12:18:07;98127.53;;;19.31;33.31
80733;BME280;70130;44.534;18.678;2024-03-23T12:20:33;98124.53;;;19.63;33.12
80733;BME280;70130;44.534;18.678;2024-03-23T12:23:08;98131.16;;;19.62;33.98
80733;BME280;70130;44.534;18.678;2024-03-23T12:25:35;98130.28;;;19.72;33.07
80733;BME280;70130;44.534;18.678;2024-03-23T12:28:02;98124.13;;;19.65;32.84
80733;BME280;70130;44.534;18.678;2024-03-23T12:30:28;98107.84;;;19.61;33.27
80733;BME280;70130;44.534;18.678;2024-03-23T12:32:53;98105.56;;;19.90;33.04
80733;BME280;70130;44.534;18.678;2024-03-23T12:35:19;98102.13;;;19.86;33.21
80733;BME280;70130;44.534;18.678;2024-03-23T12:37:45;98103.19;;;19.96;33.18
80733;BME280;70130;44.534;18.678;2024-03-23T12:40:11;98093.34;;;20.05;32.68
80733;BME280;70130;44.534;18.678;2024-03-23T12:42:36;98102.16;;;20.16;32.11
80733;BME280;70130;44.534;18.678;2024-03-23T12:45:03;98083.88;;;20.13;31.91
80733;BME280;70130;44.534;18.678;2024-03-23T12:47:30;98085.03;;;20.16;31.98
80733;BME280;70130;44.534;18.678;2024-03-23T12:49:55;98101.00;;;20.14;32.21
80733;BME280;70130;44.534;18.678;2024-03-23T12:52:21;98075.22;;;20.22;32.58
80733;BME280;70130;44.534;18.678;2024-03-23T12:54:49;98070.91;;;20.24;32.36
80733;BME280;70130;44.534;18.678;2024-03-23T12:57:15;98065.03;;;20.56;32.18
80733;BME280;70130;44.534;18.678;2024-03-23T12:59:40;98059.75;;;20.46;32.63
80733;BME280;70130;44.534;18.678;2024-03-23T13:02:06;98059.72;;;20.73;31.62
80733;BME280;70130;44.534;18.678;2024-03-23T13:04:32;98052.84;;;20.64;31.58
80733;BME280;70130;44.534;18.678;2024-03-23T13:06:58;98047.16;;;20.79;31.42
80733;BME280;70130;44.534;18.678;2024-03-23T13:09:23;98048.22;;;21.08;31.87
80733;BME280;70130;44.534;18.678;2024-03-23T13:11:49;98032.81;;;20.98;31.44
80733;BME280;70130;44.534;18.678;2024-03-23T13:14:14;98038.63;;;21.00;30.98
80733;BME280;70130;44.534;18.678;2024-03-23T13:16:42;98040.19;;;21.01;31.13
80733;BME280;70130;44.534;18.678;2024-03-23T13:19:07;98033.41;;;21.09;31.12
80733;BME280;70130;44.534;18.678;2024-03-23T13:21:33;98018.38;;;21.01;31.04
80733;BME280;70130;44.534;18.678;2024-03-23T13:23:59;98025.00;;;21.00;31.27
80733;BME280;70130;44.534;18.678;2024-03-23T13:26:24;98026.44;;;21.31;31.68
80733;BME280;70130;44.534;18.678;2024-03-23T13:28:50;98026.69;;;21.37;30.75
80733;BME280;70130;44.534;18.678;2024-03-23T13:31:17;98021.38;;;21.30;30.27
80733;BME280;70130;44.534;18.678;2024-03-23T13:33:43;98022.75;;;21.18;30.67
80733;BME280;70130;44.534;18.678;2024-03-23T13:36:09;98013.91;;;21.10;30.03
80733;BME280;70130;44.534;18.678;2024-03-23T13:38:35;98004.72;;;21.01;30.08
80733;BME280;70130;44.534;18.678;2024-03-23T13:41:01;98008.03;;;21.12;29.82
80733;BME280;70130;44.534;18.678;2024-03-23T13:43:29;97998.78;;;21.29;30.26
80733;BME280;70130;44.534;18.678;2024-03-23T13:45:56;97989.34;;;21.53;30.18
80733;BME280;70130;44.534;18.678;2024-03-23T13:48:23;97992.13;;;21.70;30.12
80733;BME280;70130;44.534;18.678;2024-03-23T13:51:02;97986.69;;;21.70;29.77
80733;BME280;70130;44.534;18.678;2024-03-23T13:53:28;97985.44;;;21.54;29.90
80733;BME280;70130;44.534;18.678;2024-03-23T13:55:54;97975.97;;;21.39;29.90
80733;BME280;70130;44.534;18.678;2024-03-23T13:58:20;97973.25;;;21.59;30.15
80733;BME280;70130;44.534;18.678;2024-03-23T14:00:46;97971.69;;;21.58;30.74